Weather at New Tempe Airport

Public forecast

Using degrees Celsius for public forecast. Weather courtesy of forecast.io.

Closest aviation weather report (METAR) to New Tempe Airport

Closest report is Bram Fischer International Airport, 8.4 nm (15.6 km) ESE. Retrieved 2021/06/15 16:00 UTC (20 minutes ago):

FABL 151600Z 34003KT CAVOK 15/M01 Q1021 NOSIG

Closest aviation forecast (TAF) to New Tempe Airport

Closest forecast is Bram Fischer International Airport, 8.4 nm (15.6 km) ESE. Retrieved 2021/06/15 12:00 UTC (4 hours ago):

TAF FABL 151000Z 1512/1612 VRB03KT CAVOK TX22/1514Z TN01/1604Z BECMG 1608/1610 34010KT